Аэропорт: Псков. Псков

ICAO: ULOO

METAR:
2019/01/21 23:00
ULOO 212300Z AUTO 25001MPS 6000 // NCD M16/M18 Q1018 RMK QFE759
METAR:
2016/02/06 08:39
TAF 
      AMD TAF 
      AMD ULOO 061936Z 0608/0703 CNL